sensor_id;sensor_type;location;lat;lon;timestamp;P1;durP1;ratioP1;P2;durP2;ratioP2
10299;SDS011;5195;48.562;9.192;2023-12-20T00:01:12;1.90;;;1.80;;
10299;SDS011;5195;48.562;9.192;2023-12-20T00:03:38;1.63;;;1.53;;
10299;SDS011;5195;48.562;9.192;2023-12-20T00:06:03;1.87;;;1.77;;
10299;SDS011;5195;48.562;9.192;2023-12-20T00:08:29;1.20;;;1.20;;
10299;SDS011;5195;48.562;9.192;2023-12-20T00:10:54;1.98;;;1.87;;
10299;SDS011;5195;48.562;9.192;2023-12-20T00:13:20;1.55;;;1.45;;
10299;SDS011;5195;48.562;9.192;2023-12-20T00:15:46;1.45;;;1.35;;
10299;SDS011;5195;48.562;9.192;2023-12-20T00:18:12;1.87;;;1.27;;
10299;SDS011;5195;48.562;9.192;2023-12-20T00:20:37;1.40;;;1.37;;
10299;SDS011;5195;48.562;9.192;2023-12-20T00:23:03;1.30;;;1.30;;
10299;SDS011;5195;48.562;9.192;2023-12-20T00:25:28;1.50;;;1.40;;
10299;SDS011;5195;48.562;9.192;2023-12-20T00:27:55;1.37;;;1.37;;
10299;SDS011;5195;48.562;9.192;2023-12-20T00:30:23;1.60;;;1.50;;
10299;SDS011;5195;48.562;9.192;2023-12-20T00:32:49;1.50;;;1.40;;
10299;SDS011;5195;48.562;9.192;2023-12-20T00:35:15;1.37;;;1.27;;
10299;SDS011;5195;48.562;9.192;2023-12-20T00:37:43;1.33;;;1.33;;
10299;SDS011;5195;48.562;9.192;2023-12-20T00:40:10;1.10;;;1.10;;
10299;SDS011;5195;48.562;9.192;2023-12-20T00:42:37;1.00;;;1.00;;
10299;SDS011;5195;48.562;9.192;2023-12-20T00:45:02;1.10;;;1.10;;
10299;SDS011;5195;48.562;9.192;2023-12-20T00:47:28;0.93;;;0.93;;
10299;SDS011;5195;48.562;9.192;2023-12-20T00:49:53;1.00;;;1.00;;
10299;SDS011;5195;48.562;9.192;2023-12-20T00:52:19;1.07;;;0.90;;
10299;SDS011;5195;48.562;9.192;2023-12-20T00:54:45;0.90;;;0.90;;
10299;SDS011;5195;48.562;9.192;2023-12-20T00:57:10;0.70;;;0.70;;
10299;SDS011;5195;48.562;9.192;2023-12-20T00:59:37;0.93;;;0.93;;
10299;SDS011;5195;48.562;9.192;2023-12-20T01:02:02;0.83;;;0.83;;
10299;SDS011;5195;48.562;9.192;2023-12-20T01:04:29;0.70;;;0.70;;
10299;SDS011;5195;48.562;9.192;2023-12-20T01:06:54;0.90;;;0.90;;
10299;SDS011;5195;48.562;9.192;2023-12-20T01:09:20;0.70;;;0.70;;
10299;SDS011;5195;48.562;9.192;2023-12-20T01:11:46;0.73;;;0.73;;
10299;SDS011;5195;48.562;9.192;2023-12-20T01:14:12;0.68;;;0.68;;
10299;SDS011;5195;48.562;9.192;2023-12-20T01:16:40;0.67;;;0.67;;
10299;SDS011;5195;48.562;9.192;2023-12-20T01:19:06;0.60;;;0.60;;
10299;SDS011;5195;48.562;9.192;2023-12-20T01:21:31;1.00;;;1.00;;
10299;SDS011;5195;48.562;9.192;2023-12-20T01:23:58;0.90;;;0.90;;
10299;SDS011;5195;48.562;9.192;2023-12-20T01:26:25;1.20;;;1.00;;
10299;SDS011;5195;48.562;9.192;2023-12-20T01:28:50;1.10;;;1.00;;
10299;SDS011;5195;48.562;9.192;2023-12-20T01:31:16;1.40;;;1.30;;
10299;SDS011;5195;48.562;9.192;2023-12-20T01:33:42;1.30;;;1.20;;
10299;SDS011;5195;48.562;9.192;2023-12-20T01:36:08;1.43;;;1.33;;
10299;SDS011;5195;48.562;9.192;2023-12-20T01:38:33;1.40;;;1.30;;
10299;SDS011;5195;48.562;9.192;2023-12-20T01:41:00;0.87;;;0.87;;
10299;SDS011;5195;48.562;9.192;2023-12-20T01:43:26;0.90;;;0.90;;
10299;SDS011;5195;48.562;9.192;2023-12-20T01:45:52;1.07;;;1.07;;
10299;SDS011;5195;48.562;9.192;2023-12-20T01:48:18;1.03;;;1.00;;
10299;SDS011;5195;48.562;9.192;2023-12-20T01:50:43;1.10;;;1.10;;
10299;SDS011;5195;48.562;9.192;2023-12-20T01:53:08;0.70;;;0.70;;
10299;SDS011;5195;48.562;9.192;2023-12-20T01:55:34;2.20;;;1.23;;
10299;SDS011;5195;48.562;9.192;2023-12-20T01:57:59;0.80;;;0.80;;
10299;SDS011;5195;48.562;9.192;2023-12-20T02:00:26;1.20;;;1.20;;
10299;SDS011;5195;48.562;9.192;2023-12-20T02:02:50;1.30;;;1.30;;
10299;SDS011;5195;48.562;9.192;2023-12-20T02:05:16;1.45;;;1.25;;
10299;SDS011;5195;48.562;9.192;2023-12-20T02:07:43;1.23;;;1.23;;
10299;SDS011;5195;48.562;9.192;2023-12-20T02:10:08;1.97;;;1.87;;
10299;SDS011;5195;48.562;9.192;2023-12-20T02:12:34;2.10;;;2.00;;
10299;SDS011;5195;48.562;9.192;2023-12-20T02:15:00;2.43;;;2.23;;
10299;SDS011;5195;48.562;9.192;2023-12-20T02:17:25;1.83;;;1.73;;
10299;SDS011;5195;48.562;9.192;2023-12-20T02:19:51;2.07;;;1.80;;
10299;SDS011;5195;48.562;9.192;2023-12-20T02:22:17;2.83;;;1.70;;
10299;SDS011;5195;48.562;9.192;2023-12-20T02:24:43;1.40;;;1.37;;
10299;SDS011;5195;48.562;9.192;2023-12-20T02:27:08;2.00;;;1.90;;
10299;SDS011;5195;48.562;9.192;2023-12-20T02:29:34;1.85;;;1.52;;
10299;SDS011;5195;48.562;9.192;2023-12-20T02:32:00;1.70;;;1.60;;
10299;SDS011;5195;48.562;9.192;2023-12-20T02:34:26;1.57;;;1.47;;
10299;SDS011;5195;48.562;9.192;2023-12-20T02:36:55;1.50;;;1.40;;
10299;SDS011;5195;48.562;9.192;2023-12-20T02:39:22;1.40;;;1.30;;
10299;SDS011;5195;48.562;9.192;2023-12-20T02:41:48;1.77;;;1.50;;
10299;SDS011;5195;48.562;9.192;2023-12-20T02:44:13;1.27;;;1.27;;
10299;SDS011;5195;48.562;9.192;2023-12-20T02:46:41;1.40;;;1.30;;
10299;SDS011;5195;48.562;9.192;2023-12-20T02:49:07;1.30;;;1.20;;
10299;SDS011;5195;48.562;9.192;2023-12-20T02:51:33;1.00;;;1.00;;
10299;SDS011;5195;48.562;9.192;2023-12-20T02:53:58;1.70;;;1.60;;
10299;SDS011;5195;48.562;9.192;2023-12-20T02:56:24;1.60;;;1.50;;
10299;SDS011;5195;48.562;9.192;2023-12-20T02:58:50;1.60;;;1.50;;
10299;SDS011;5195;48.562;9.192;2023-12-20T03:01:16;1.20;;;1.10;;
10299;SDS011;5195;48.562;9.192;2023-12-20T03:03:42;1.33;;;1.33;;
10299;SDS011;5195;48.562;9.192;2023-12-20T03:06:09;1.27;;;1.27;;
10299;SDS011;5195;48.562;9.192;2023-12-20T03:08:34;1.17;;;1.17;;
10299;SDS011;5195;48.562;9.192;2023-12-20T03:11:02;1.27;;;1.15;;
10299;SDS011;5195;48.562;9.192;2023-12-20T03:13:27;0.90;;;0.90;;
10299;SDS011;5195;48.562;9.192;2023-12-20T03:15:53;1.07;;;1.07;;
10299;SDS011;5195;48.562;9.192;2023-12-20T03:18:18;1.20;;;1.10;;
10299;SDS011;5195;48.562;9.192;2023-12-20T03:20:45;1.00;;;1.00;;
10299;SDS011;5195;48.562;9.192;2023-12-20T03:23:11;1.27;;;1.17;;
10299;SDS011;5195;48.562;9.192;2023-12-20T03:25:36;0.90;;;0.90;;
10299;SDS011;5195;48.562;9.192;2023-12-20T03:28:02;1.10;;;1.10;;
10299;SDS011;5195;48.562;9.192;2023-12-20T03:30:29;0.80;;;0.80;;
10299;SDS011;5195;48.562;9.192;2023-12-20T03:32:54;1.27;;;1.20;;
10299;SDS011;5195;48.562;9.192;2023-12-20T03:35:20;0.77;;;0.77;;
10299;SDS011;5195;48.562;9.192;2023-12-20T03:37:45;1.30;;;1.30;;
10299;SDS011;5195;48.562;9.192;2023-12-20T03:40:11;1.00;;;1.00;;
10299;SDS011;5195;48.562;9.192;2023-12-20T03:42:36;1.20;;;1.20;;
10299;SDS011;5195;48.562;9.192;2023-12-20T03:45:03;1.40;;;1.30;;
10299;SDS011;5195;48.562;9.192;2023-12-20T03:47:29;1.40;;;1.30;;
10299;SDS011;5195;48.562;9.192;2023-12-20T03:49:56;1.17;;;1.17;;
10299;SDS011;5195;48.562;9.192;2023-12-20T03:52:22;1.10;;;1.00;;
10299;SDS011;5195;48.562;9.192;2023-12-20T03:54:50;1.43;;;1.40;;
10299;SDS011;5195;48.562;9.192;2023-12-20T03:57:17;1.30;;;1.20;;
10299;SDS011;5195;48.562;9.192;2023-12-20T03:59:44;1.00;;;1.00;;
10299;SDS011;5195;48.562;9.192;2023-12-20T04:02:11;2.40;;;1.90;;
10299;SDS011;5195;48.562;9.192;2023-12-20T04:04:36;1.33;;;1.33;;
10299;SDS011;5195;48.562;9.192;2023-12-20T04:07:02;2.40;;;1.60;;
10299;SDS011;5195;48.562;9.192;2023-12-20T04:09:27;1.17;;;1.13;;
10299;SDS011;5195;48.562;9.192;2023-12-20T04:11:53;1.30;;;1.30;;
10299;SDS011;5195;48.562;9.192;2023-12-20T04:14:20;1.85;;;1.60;;
10299;SDS011;5195;48.562;9.192;2023-12-20T04:16:46;1.67;;;1.60;;
10299;SDS011;5195;48.562;9.192;2023-12-20T04:19:12;1.67;;;1.13;;
10299;SDS011;5195;48.562;9.192;2023-12-20T04:21:37;1.50;;;1.40;;
10299;SDS011;5195;48.562;9.192;2023-12-20T04:24:05;1.50;;;1.40;;
10299;SDS011;5195;48.562;9.192;2023-12-20T04:26:30;1.50;;;1.50;;
10299;SDS011;5195;48.562;9.192;2023-12-20T04:28:56;1.60;;;1.50;;
10299;SDS011;5195;48.562;9.192;2023-12-20T04:31:22;1.10;;;1.10;;
10299;SDS011;5195;48.562;9.192;2023-12-20T04:33:49;1.20;;;1.20;;
10299;SDS011;5195;48.562;9.192;2023-12-20T04:36:15;1.50;;;1.40;;
10299;SDS011;5195;48.562;9.192;2023-12-20T04:38:41;0.60;;;0.60;;
10299;SDS011;5195;48.562;9.192;2023-12-20T04:41:06;0.90;;;0.90;;
10299;SDS011;5195;48.562;9.192;2023-12-20T04:43:33;1.70;;;0.57;;
10299;SDS011;5195;48.562;9.192;2023-12-20T04:45:58;0.90;;;0.90;;
10299;SDS011;5195;48.562;9.192;2023-12-20T04:48:24;0.87;;;0.87;;
10299;SDS011;5195;48.562;9.192;2023-12-20T04:50:50;0.80;;;0.80;;
10299;SDS011;5195;48.562;9.192;2023-12-20T04:53:16;1.10;;;1.00;;
10299;SDS011;5195;48.562;9.192;2023-12-20T04:55:41;1.43;;;1.07;;
10299;SDS011;5195;48.562;9.192;2023-12-20T04:58:07;2.13;;;0.80;;
10299;SDS011;5195;48.562;9.192;2023-12-20T05:00:33;0.70;;;0.70;;
10299;SDS011;5195;48.562;9.192;2023-12-20T05:02:59;0.73;;;0.50;;
10299;SDS011;5195;48.562;9.192;2023-12-20T05:05:24;0.97;;;0.70;;
10299;SDS011;5195;48.562;9.192;2023-12-20T05:07:50;0.40;;;0.40;;
10299;SDS011;5195;48.562;9.192;2023-12-20T05:10:15;0.43;;;0.43;;
10299;SDS011;5195;48.562;9.192;2023-12-20T05:12:41;1.80;;;0.53;;
10299;SDS011;5195;48.562;9.192;2023-12-20T05:15:07;0.47;;;0.40;;
10299;SDS011;5195;48.562;9.192;2023-12-20T05:17:34;0.60;;;0.60;;
10299;SDS011;5195;48.562;9.192;2023-12-20T05:20:00;0.50;;;0.50;;
10299;SDS011;5195;48.562;9.192;2023-12-20T05:22:25;1.90;;;0.70;;
10299;SDS011;5195;48.562;9.192;2023-12-20T05:24:51;0.55;;;0.43;;
10299;SDS011;5195;48.562;9.192;2023-12-20T05:27:17;0.73;;;0.60;;
10299;SDS011;5195;48.562;9.192;2023-12-20T05:29:42;1.00;;;0.53;;
10299;SDS011;5195;48.562;9.192;2023-12-20T05:32:09;0.50;;;0.30;;
10299;SDS011;5195;48.562;9.192;2023-12-20T05:34:35;0.50;;;0.50;;
10299;SDS011;5195;48.562;9.192;2023-12-20T05:37:00;0.30;;;0.30;;
10299;SDS011;5195;48.562;9.192;2023-12-20T05:39:27;0.30;;;0.30;;
10299;SDS011;5195;48.562;9.192;2023-12-20T05:41:52;0.40;;;0.40;;
10299;SDS011;5195;48.562;9.192;2023-12-20T05:44:18;0.40;;;0.40;;
10299;SDS011;5195;48.562;9.192;2023-12-20T05:46:43;0.30;;;0.30;;
10299;SDS011;5195;48.562;9.192;2023-12-20T05:49:09;0.30;;;0.30;;
10299;SDS011;5195;48.562;9.192;2023-12-20T05:51:35;1.55;;;0.50;;
10299;SDS011;5195;48.562;9.192;2023-12-20T05:54:01;2.50;;;0.55;;
10299;SDS011;5195;48.562;9.192;2023-12-20T05:56:26;0.40;;;0.40;;
10299;SDS011;5195;48.562;9.192;2023-12-20T05:58:53;0.50;;;0.50;;
10299;SDS011;5195;48.562;9.192;2023-12-20T06:01:19;0.50;;;0.50;;
10299;SDS011;5195;48.562;9.192;2023-12-20T06:03:45;0.30;;;0.30;;
10299;SDS011;5195;48.562;9.192;2023-12-20T06:06:11;0.50;;;0.50;;
10299;SDS011;5195;48.562;9.192;2023-12-20T06:08:36;0.63;;;0.40;;
10299;SDS011;5195;48.562;9.192;2023-12-20T06:11:02;0.30;;;0.30;;
10299;SDS011;5195;48.562;9.192;2023-12-20T06:13:28;1.00;;;0.47;;
10299;SDS011;5195;48.562;9.192;2023-12-20T06:15:54;0.60;;;0.50;;
10299;SDS011;5195;48.562;9.192;2023-12-20T06:18:20;3.50;;;0.50;;
10299;SDS011;5195;48.562;9.192;2023-12-20T06:20:46;0.43;;;0.43;;
10299;SDS011;5195;48.562;9.192;2023-12-20T06:23:12;2.15;;;0.60;;
10299;SDS011;5195;48.562;9.192;2023-12-20T06:25:38;0.40;;;0.40;;
10299;SDS011;5195;48.562;9.192;2023-12-20T06:28:03;0.50;;;0.50;;
10299;SDS011;5195;48.562;9.192;2023-12-20T06:30:29;0.40;;;0.40;;
10299;SDS011;5195;48.562;9.192;2023-12-20T06:32:55;1.40;;;0.50;;
10299;SDS011;5195;48.562;9.192;2023-12-20T06:35:23;0.80;;;0.80;;
10299;SDS011;5195;48.562;9.192;2023-12-20T06:37:50;1.43;;;0.80;;
10299;SDS011;5195;48.562;9.192;2023-12-20T06:40:16;0.67;;;0.67;;
10299;SDS011;5195;48.562;9.192;2023-12-20T06:42:42;0.80;;;0.40;;
10299;SDS011;5195;48.562;9.192;2023-12-20T06:45:08;2.00;;;0.80;;
10299;SDS011;5195;48.562;9.192;2023-12-20T06:47:33;1.10;;;0.80;;
10299;SDS011;5195;48.562;9.192;2023-12-20T06:49:59;2.00;;;1.10;;
10299;SDS011;5195;48.562;9.192;2023-12-20T06:52:24;1.67;;;0.80;;
10299;SDS011;5195;48.562;9.192;2023-12-20T06:54:51;2.60;;;1.40;;
10299;SDS011;5195;48.562;9.192;2023-12-20T06:57:16;1.27;;;0.63;;
10299;SDS011;5195;48.562;9.192;2023-12-20T06:59:42;1.58;;;0.50;;
10299;SDS011;5195;48.562;9.192;2023-12-20T07:02:08;0.70;;;0.50;;
10299;SDS011;5195;48.562;9.192;2023-12-20T07:04:39;1.10;;;0.70;;
10299;SDS011;5195;48.562;9.192;2023-12-20T07:07:04;1.53;;;0.80;;
10299;SDS011;5195;48.562;9.192;2023-12-20T07:09:30;0.63;;;0.63;;
10299;SDS011;5195;48.562;9.192;2023-12-20T07:11:55;1.50;;;0.70;;
10299;SDS011;5195;48.562;9.192;2023-12-20T07:14:21;0.73;;;0.73;;
10299;SDS011;5195;48.562;9.192;2023-12-20T07:16:46;0.60;;;0.60;;
10299;SDS011;5195;48.562;9.192;2023-12-20T07:19:12;1.55;;;0.70;;
10299;SDS011;5195;48.562;9.192;2023-12-20T07:21:38;0.90;;;0.90;;
10299;SDS011;5195;48.562;9.192;2023-12-20T07:24:03;2.17;;;0.80;;
10299;SDS011;5195;48.562;9.192;2023-12-20T07:26:30;2.53;;;1.00;;
10299;SDS011;5195;48.562;9.192;2023-12-20T07:28:56;1.10;;;0.90;;
10299;SDS011;5195;48.562;9.192;2023-12-20T07:31:21;0.70;;;0.60;;
10299;SDS011;5195;48.562;9.192;2023-12-20T07:33:47;2.80;;;0.67;;
10299;SDS011;5195;48.562;9.192;2023-12-20T07:36:12;0.77;;;0.77;;
10299;SDS011;5195;48.562;9.192;2023-12-20T07:38:38;1.73;;;0.87;;
10299;SDS011;5195;48.562;9.192;2023-12-20T07:41:03;1.77;;;1.67;;
10299;SDS011;5195;48.562;9.192;2023-12-20T07:43:30;1.70;;;0.93;;
10299;SDS011;5195;48.562;9.192;2023-12-20T07:45:57;1.45;;;1.00;;
10299;SDS011;5195;48.562;9.192;2023-12-20T07:48:24;0.63;;;0.63;;
10299;SDS011;5195;48.562;9.192;2023-12-20T07:50:49;1.83;;;0.97;;
10299;SDS011;5195;48.562;9.192;2023-12-20T07:53:15;2.43;;;1.10;;
10299;SDS011;5195;48.562;9.192;2023-12-20T07:55:40;2.53;;;0.93;;
10299;SDS011;5195;48.562;9.192;2023-12-20T07:58:06;2.10;;;1.10;;
10299;SDS011;5195;48.562;9.192;2023-12-20T08:00:32;1.50;;;1.40;;
10299;SDS011;5195;48.562;9.192;2023-12-20T08:02:57;1.60;;;1.10;;
10299;SDS011;5195;48.562;9.192;2023-12-20T08:05:23;2.60;;;1.05;;
10299;SDS011;5195;48.562;9.192;2023-12-20T08:07:48;1.17;;;1.13;;
10299;SDS011;5195;48.562;9.192;2023-12-20T08:10:14;0.90;;;0.90;;
10299;SDS011;5195;48.562;9.192;2023-12-20T08:12:40;1.55;;;0.93;;
10299;SDS011;5195;48.562;9.192;2023-12-20T08:15:05;0.90;;;0.90;;
10299;SDS011;5195;48.562;9.192;2023-12-20T08:17:31;1.50;;;0.90;;
10299;SDS011;5195;48.562;9.192;2023-12-20T08:19:57;0.62;;;0.62;;
10299;SDS011;5195;48.562;9.192;2023-12-20T08:22:23;1.03;;;0.60;;
10299;SDS011;5195;48.562;9.192;2023-12-20T08:24:49;0.80;;;0.80;;
10299;SDS011;5195;48.562;9.192;2023-12-20T08:27:14;0.83;;;0.83;;
10299;SDS011;5195;48.562;9.192;2023-12-20T08:29:40;1.10;;;0.80;;
10299;SDS011;5195;48.562;9.192;2023-12-20T08:32:05;0.90;;;0.90;;
10299;SDS011;5195;48.562;9.192;2023-12-20T08:34:31;1.00;;;0.80;;
10299;SDS011;5195;48.562;9.192;2023-12-20T08:36:56;0.67;;;0.67;;
10299;SDS011;5195;48.562;9.192;2023-12-20T08:39:22;0.60;;;0.60;;
10299;SDS011;5195;48.562;9.192;2023-12-20T09:15:20;0.90;;;0.90;;
10299;SDS011;5195;48.562;9.192;2023-12-20T09:17:46;1.60;;;1.00;;
10299;SDS011;5195;48.562;9.192;2023-12-20T09:20:11;1.20;;;1.20;;
10299;SDS011;5195;48.562;9.192;2023-12-20T09:22:37;1.98;;;1.40;;
10299;SDS011;5195;48.562;9.192;2023-12-20T09:25:03;2.30;;;1.42;;
10299;SDS011;5195;48.562;9.192;2023-12-20T09:27:29;1.53;;;1.37;;
10299;SDS011;5195;48.562;9.192;2023-12-20T09:29:56;2.93;;;1.10;;
10299;SDS011;5195;48.562;9.192;2023-12-20T09:32:21;1.40;;;1.30;;
10299;SDS011;5195;48.562;9.192;2023-12-20T09:34:47;2.25;;;1.50;;
10299;SDS011;5195;48.562;9.192;2023-12-20T09:37:12;2.12;;;1.60;;
10299;SDS011;5195;48.562;9.192;2023-12-20T09:39:38;1.70;;;1.60;;
10299;SDS011;5195;48.562;9.192;2023-12-20T09:42:04;2.20;;;2.00;;
10299;SDS011;5195;48.562;9.192;2023-12-20T09:44:30;3.67;;;1.60;;
10299;SDS011;5195;48.562;9.192;2023-12-20T09:46:56;3.40;;;2.10;;
10299;SDS011;5195;48.562;9.192;2023-12-20T09:49:21;2.93;;;1.80;;
10299;SDS011;5195;48.562;9.192;2023-12-20T09:51:47;1.90;;;1.52;;
10299;SDS011;5195;48.562;9.192;2023-12-20T09:54:23;3.90;;;1.50;;
10299;SDS011;5195;48.562;9.192;2023-12-20T09:56:38;2.43;;;1.60;;
10299;SDS011;5195;48.562;9.192;2023-12-20T09:59:04;3.22;;;1.50;;
10299;SDS011;5195;48.562;9.192;2023-12-20T10:01:30;3.97;;;1.45;;
10299;SDS011;5195;48.562;9.192;2023-12-20T10:03:55;3.55;;;1.55;;
10299;SDS011;5195;48.562;9.192;2023-12-20T10:06:22;2.47;;;1.80;;
10299;SDS011;5195;48.562;9.192;2023-12-20T10:08:47;3.53;;;1.20;;
10299;SDS011;5195;48.562;9.192;2023-12-20T10:11:13;1.43;;;1.07;;
10299;SDS011;5195;48.562;9.192;2023-12-20T10:13:42;3.17;;;1.37;;
10299;SDS011;5195;48.562;9.192;2023-12-20T10:16:09;2.42;;;1.60;;
10299;SDS011;5195;48.562;9.192;2023-12-20T10:18:35;3.30;;;1.77;;
10299;SDS011;5195;48.562;9.192;2023-12-20T10:21:01;2.20;;;1.40;;
10299;SDS011;5195;48.562;9.192;2023-12-20T10:23:27;3.60;;;1.10;;
10299;SDS011;5195;48.562;9.192;2023-12-20T10:25:59;1.03;;;0.90;;
10299;SDS011;5195;48.562;9.192;2023-12-20T10:28:25;3.30;;;1.63;;
10299;SDS011;5195;48.562;9.192;2023-12-20T10:30:50;2.60;;;0.93;;
10299;SDS011;5195;48.562;9.192;2023-12-20T10:33:24;2.00;;;1.27;;
10299;SDS011;5195;48.562;9.192;2023-12-20T10:35:52;1.43;;;1.13;;
10299;SDS011;5195;48.562;9.192;2023-12-20T10:38:17;4.37;;;1.08;;
10299;SDS011;5195;48.562;9.192;2023-12-20T10:40:43;2.17;;;1.23;;
10299;SDS011;5195;48.562;9.192;2023-12-20T10:43:08;1.60;;;1.10;;
10299;SDS011;5195;48.562;9.192;2023-12-20T10:45:35;3.87;;;1.40;;
10299;SDS011;5195;48.562;9.192;2023-12-20T10:48:01;1.37;;;1.20;;
10299;SDS011;5195;48.562;9.192;2023-12-20T10:50:27;3.10;;;1.30;;
10299;SDS011;5195;48.562;9.192;2023-12-20T10:52:52;1.50;;;1.23;;
10299;SDS011;5195;48.562;9.192;2023-12-20T10:55:18;1.97;;;1.23;;
10299;SDS011;5195;48.562;9.192;2023-12-20T10:57:43;1.80;;;1.10;;
10299;SDS011;5195;48.562;9.192;2023-12-20T11:00:09;3.50;;;1.50;;
10299;SDS011;5195;48.562;9.192;2023-12-20T11:02:37;2.47;;;1.20;;
10299;SDS011;5195;48.562;9.192;2023-12-20T11:05:06;1.37;;;1.27;;
10299;SDS011;5195;48.562;9.192;2023-12-20T11:07:35;1.20;;;1.00;;
10299;SDS011;5195;48.562;9.192;2023-12-20T11:10:01;1.53;;;0.80;;
10299;SDS011;5195;48.562;9.192;2023-12-20T11:15:05;1.42;;;1.12;;
10299;SDS011;5195;48.562;9.192;2023-12-20T11:17:31;1.00;;;0.73;;
10299;SDS011;5195;48.562;9.192;2023-12-20T11:22:27;2.23;;;1.00;;
10299;SDS011;5195;48.562;9.192;2023-12-20T11:24:52;1.83;;;1.00;;
10299;SDS011;5195;48.562;9.192;2023-12-20T11:27:18;2.78;;;1.67;;
10299;SDS011;5195;48.562;9.192;2023-12-20T11:29:43;1.63;;;1.30;;
10299;SDS011;5195;48.562;9.192;2023-12-20T11:34:56;2.27;;;1.50;;
10299;SDS011;5195;48.562;9.192;2023-12-20T11:37:21;1.75;;;1.08;;
10299;SDS011;5195;48.562;9.192;2023-12-20T11:39:56;2.57;;;1.00;;
10299;SDS011;5195;48.562;9.192;2023-12-20T11:42:22;1.97;;;1.30;;
10299;SDS011;5195;48.562;9.192;2023-12-20T11:44:48;2.13;;;1.17;;
10299;SDS011;5195;48.562;9.192;2023-12-20T11:47:14;1.58;;;0.88;;
10299;SDS011;5195;48.562;9.192;2023-12-20T11:49:42;1.98;;;1.17;;
10299;SDS011;5195;48.562;9.192;2023-12-20T11:52:08;2.25;;;1.33;;
10299;SDS011;5195;48.562;9.192;2023-12-20T11:54:34;2.22;;;1.10;;
10299;SDS011;5195;48.562;9.192;2023-12-20T11:56:59;1.02;;;0.73;;
10299;SDS011;5195;48.562;9.192;2023-12-20T11:59:25;2.67;;;1.03;;
10299;SDS011;5195;48.562;9.192;2023-12-20T12:01:50;1.60;;;1.20;;
10299;SDS011;5195;48.562;9.192;2023-12-20T12:04:17;1.40;;;0.97;;
10299;SDS011;5195;48.562;9.192;2023-12-20T12:06:42;2.33;;;1.20;;
10299;SDS011;5195;48.562;9.192;2023-12-20T12:09:08;4.18;;;1.25;;
10299;SDS011;5195;48.562;9.192;2023-12-20T12:11:33;2.73;;;1.10;;
10299;SDS011;5195;48.562;9.192;2023-12-20T12:13:59;3.10;;;1.40;;
10299;SDS011;5195;48.562;9.192;2023-12-20T12:16:25;2.15;;;1.45;;
10299;SDS011;5195;48.562;9.192;2023-12-20T12:18:57;3.93;;;1.00;;
10299;SDS011;5195;48.562;9.192;2023-12-20T12:21:23;2.80;;;1.30;;
10299;SDS011;5195;48.562;9.192;2023-12-20T12:23:50;2.70;;;1.00;;
10299;SDS011;5195;48.562;9.192;2023-12-20T12:26:15;1.50;;;1.40;;
10299;SDS011;5195;48.562;9.192;2023-12-20T12:28:41;2.60;;;1.10;;
10299;SDS011;5195;48.562;9.192;2023-12-20T12:31:06;3.10;;;1.30;;
10299;SDS011;5195;48.562;9.192;2023-12-20T12:33:32;2.17;;;1.33;;
10299;SDS011;5195;48.562;9.192;2023-12-20T12:35:57;2.70;;;1.33;;
10299;SDS011;5195;48.562;9.192;2023-12-20T12:38:23;2.33;;;1.33;;
10299;SDS011;5195;48.562;9.192;2023-12-20T12:40:49;2.78;;;1.40;;
10299;SDS011;5195;48.562;9.192;2023-12-20T12:43:14;3.05;;;1.15;;
10299;SDS011;5195;48.562;9.192;2023-12-20T12:45:40;1.73;;;1.25;;
10299;SDS011;5195;48.562;9.192;2023-12-20T12:48:05;2.37;;;1.17;;
10299;SDS011;5195;48.562;9.192;2023-12-20T12:50:31;3.85;;;1.30;;
10299;SDS011;5195;48.562;9.192;2023-12-20T12:52:57;4.72;;;1.27;;
10299;SDS011;5195;48.562;9.192;2023-12-20T12:55:23;1.87;;;1.00;;
10299;SDS011;5195;48.562;9.192;2023-12-20T12:57:48;2.93;;;1.70;;
10299;SDS011;5195;48.562;9.192;2023-12-20T13:00:14;4.23;;;1.67;;
10299;SDS011;5195;48.562;9.192;2023-12-20T13:02:41;3.15;;;1.55;;
10299;SDS011;5195;48.562;9.192;2023-12-20T13:05:08;11.07;;;1.85;;
10299;SDS011;5195;48.562;9.192;2023-12-20T13:07:34;3.77;;;1.57;;
10299;SDS011;5195;48.562;9.192;2023-12-20T13:09:59;4.27;;;1.27;;
10299;SDS011;5195;48.562;9.192;2023-12-20T13:12:24;3.60;;;1.50;;
10299;SDS011;5195;48.562;9.192;2023-12-20T13:14:50;2.67;;;1.17;;
10299;SDS011;5195;48.562;9.192;2023-12-20T13:17:16;3.60;;;1.30;;
10299;SDS011;5195;48.562;9.192;2023-12-20T13:19:41;5.60;;;1.40;;
10299;SDS011;5195;48.562;9.192;2023-12-20T13:22:08;3.78;;;1.20;;
10299;SDS011;5195;48.562;9.192;2023-12-20T13:24:34;2.85;;;1.40;;
10299;SDS011;5195;48.562;9.192;2023-12-20T13:26:59;3.15;;;1.40;;
10299;SDS011;5195;48.562;9.192;2023-12-20T13:29:25;3.58;;;1.55;;
10299;SDS011;5195;48.562;9.192;2023-12-20T13:31:55;3.13;;;1.00;;
10299;SDS011;5195;48.562;9.192;2023-12-20T13:34:20;3.15;;;1.20;;
10299;SDS011;5195;48.562;9.192;2023-12-20T13:36:46;3.70;;;1.70;;
10299;SDS011;5195;48.562;9.192;2023-12-20T13:39:11;1.60;;;0.77;;
10299;SDS011;5195;48.562;9.192;2023-12-20T13:41:37;3.07;;;1.30;;
10299;SDS011;5195;48.562;9.192;2023-12-20T13:44:03;2.60;;;1.20;;
10299;SDS011;5195;48.562;9.192;2023-12-20T13:46:29;2.07;;;1.20;;
10299;SDS011;5195;48.562;9.192;2023-12-20T13:48:54;3.50;;;1.70;;
10299;SDS011;5195;48.562;9.192;2023-12-20T13:51:20;4.82;;;1.55;;
10299;SDS011;5195;48.562;9.192;2023-12-20T13:53:46;2.83;;;1.10;;
10299;SDS011;5195;48.562;9.192;2023-12-20T13:56:11;3.13;;;1.60;;
10299;SDS011;5195;48.562;9.192;2023-12-20T13:58:37;2.73;;;1.23;;
10299;SDS011;5195;48.562;9.192;2023-12-20T14:01:03;2.93;;;1.40;;
10299;SDS011;5195;48.562;9.192;2023-12-20T14:03:29;1.37;;;1.10;;
10299;SDS011;5195;48.562;9.192;2023-12-20T14:05:54;3.57;;;1.20;;
10299;SDS011;5195;48.562;9.192;2023-12-20T14:08:20;4.87;;;1.30;;
10299;SDS011;5195;48.562;9.192;2023-12-20T14:10:45;3.58;;;2.10;;
10299;SDS011;5195;48.562;9.192;2023-12-20T14:13:11;3.87;;;1.40;;
10299;SDS011;5195;48.562;9.192;2023-12-20T14:15:37;3.30;;;1.30;;
10299;SDS011;5195;48.562;9.192;2023-12-20T14:18:06;4.00;;;1.33;;
10299;SDS011;5195;48.562;9.192;2023-12-20T14:20:35;2.73;;;1.50;;
10299;SDS011;5195;48.562;9.192;2023-12-20T14:23:01;4.40;;;1.63;;
10299;SDS011;5195;48.562;9.192;2023-12-20T14:25:28;3.73;;;1.50;;
10299;SDS011;5195;48.562;9.192;2023-12-20T14:27:53;2.00;;;1.13;;
10299;SDS011;5195;48.562;9.192;2023-12-20T14:30:19;2.07;;;0.93;;
10299;SDS011;5195;48.562;9.192;2023-12-20T14:32:45;2.70;;;1.23;;
10299;SDS011;5195;48.562;9.192;2023-12-20T14:35:11;2.93;;;1.20;;
10299;SDS011;5195;48.562;9.192;2023-12-20T14:37:36;3.65;;;1.50;;
10299;SDS011;5195;48.562;9.192;2023-12-20T14:40:06;1.00;;;0.90;;
10299;SDS011;5195;48.562;9.192;2023-12-20T14:42:31;3.47;;;1.37;;
10299;SDS011;5195;48.562;9.192;2023-12-20T14:44:56;2.85;;;1.40;;
10299;SDS011;5195;48.562;9.192;2023-12-20T14:47:23;2.03;;;1.17;;
10299;SDS011;5195;48.562;9.192;2023-12-20T14:49:48;2.60;;;1.40;;
10299;SDS011;5195;48.562;9.192;2023-12-20T14:52:14;4.05;;;1.50;;
10299;SDS011;5195;48.562;9.192;2023-12-20T14:54:39;4.90;;;1.40;;
10299;SDS011;5195;48.562;9.192;2023-12-20T14:57:05;2.77;;;1.03;;
10299;SDS011;5195;48.562;9.192;2023-12-20T14:59:31;1.23;;;1.17;;
10299;SDS011;5195;48.562;9.192;2023-12-20T15:01:56;1.83;;;1.03;;
10299;SDS011;5195;48.562;9.192;2023-12-20T15:04:22;3.10;;;1.30;;
10299;SDS011;5195;48.562;9.192;2023-12-20T15:06:47;3.50;;;1.70;;
10299;SDS011;5195;48.562;9.192;2023-12-20T15:09:13;2.40;;;1.00;;
10299;SDS011;5195;48.562;9.192;2023-12-20T15:11:39;2.67;;;1.50;;
10299;SDS011;5195;48.562;9.192;2023-12-20T15:14:05;2.28;;;1.30;;
10299;SDS011;5195;48.562;9.192;2023-12-20T15:16:32;1.60;;;1.20;;
10299;SDS011;5195;48.562;9.192;2023-12-20T15:18:57;1.60;;;1.20;;
10299;SDS011;5195;48.562;9.192;2023-12-20T15:21:23;1.73;;;1.00;;
10299;SDS011;5195;48.562;9.192;2023-12-20T15:23:48;3.97;;;1.60;;
10299;SDS011;5195;48.562;9.192;2023-12-20T15:26:20;2.53;;;1.30;;
10299;SDS011;5195;48.562;9.192;2023-12-20T15:28:46;3.25;;;1.60;;
10299;SDS011;5195;48.562;9.192;2023-12-20T15:31:11;2.62;;;1.20;;
10299;SDS011;5195;48.562;9.192;2023-12-20T15:33:40;2.03;;;1.30;;